Time;durP1;ratioP1;P1;durP2;ratioP2;P2;SDS_P1;SDS_P2;PMS_P1;PMS_P2;Temp;Humidity;BMP_temperature;BMP_pressure;BME280_temperature;BME280_humidity;BME280_pressure;Samples;Min_cycle;Max_cycle;Signal;HPM_P1;HPM_P2
2023/08/20 00:00:04;;;;;;;;;0.00;0.00;;;;;;;;4596026;31;28359;-76
2023/08/20 00:02:32;;;;;;;;;0.00;0.00;;;;;;;;4596202;30;28265;-75
2023/08/20 00:04:57;;;;;;;;;0.00;0.00;;;;;;;;4595664;30;28462;-75
2023/08/20 00:07:22;;;;;;;;;0.00;0.00;;;;;;;;4595597;31;28353;-76
2023/08/20 00:09:47;;;;;;;;;0.67;0.00;;;;;;;;4595998;30;28359;-75
2023/08/20 00:12:13;;;;;;;;;1.00;0.00;;;;;;;;4595666;31;28850;-77
2023/08/20 00:14:58;;;;;;;;;1.00;0.67;;;;;;;;4595082;31;29227;-76
2023/08/20 00:17:27;;;;;;;;;0.00;0.00;;;;;;;;4595746;30;28483;-76
2023/08/20 00:19:55;;;;;;;;;0.00;0.00;;;;;;;;4596115;30;28511;-75
2023/08/20 00:22:22;;;;;;;;;0.67;0.67;;;;;;;;4595641;30;28483;-75
2023/08/20 00:24:47;;;;;;;;;0.67;0.00;;;;;;;;4595438;30;28354;-76
2023/08/20 00:27:12;;;;;;;;;0.67;0.67;;;;;;;;4594204;31;28405;-75
2023/08/20 00:29:37;;;;;;;;;0.00;0.00;;;;;;;;4580694;31;28776;-75
2023/08/20 00:32:03;;;;;;;;;0.00;0.00;;;;;;;;4595719;31;28434;-76
2023/08/20 00:34:28;;;;;;;;;3.00;1.00;;;;;;;;4595596;31;28390;-75
2023/08/20 00:36:53;;;;;;;;;0.00;0.00;;;;;;;;4595631;31;28378;-76
2023/08/20 00:39:18;;;;;;;;;2.00;0.67;;;;;;;;4595594;31;28621;-76
2023/08/20 00:41:44;;;;;;;;;2.67;1.00;;;;;;;;4600782;30;28453;-75
2023/08/20 00:44:09;;;;;;;;;1.33;0.00;;;;;;;;4594413;31;28510;-76
2023/08/20 00:46:34;;;;;;;;;0.67;0.67;;;;;;;;4595530;31;28555;-75
2023/08/20 00:49:00;;;;;;;;;0.00;0.00;;;;;;;;4595519;31;28425;-76
2023/08/20 00:51:25;;;;;;;;;2.00;0.00;;;;;;;;4595144;31;28475;-76
2023/08/20 00:53:51;;;;;;;;;0.00;0.00;;;;;;;;4595376;30;29236;-75
2023/08/20 00:56:16;;;;;;;;;0.00;0.00;;;;;;;;4595049;30;28427;-75
2023/08/20 00:58:42;;;;;;;;;1.00;1.00;;;;;;;;4595182;31;28479;-75
2023/08/20 01:01:07;;;;;;;;;0.67;0.67;;;;;;;;4595390;30;28448;-75
2023/08/20 01:03:32;;;;;;;;;0.00;0.00;;;;;;;;4595044;31;28487;-74
2023/08/20 01:06:17;;;;;;;;;1.33;1.00;;;;;;;;4594999;31;28452;-74
2023/08/20 01:08:46;;;;;;;;;0.00;0.00;;;;;;;;4579118;31;28408;-75
2023/08/20 01:11:21;;;;;;;;;1.00;1.00;;;;;;;;4595242;30;28309;-75
2023/08/20 01:13:47;;;;;;;;;0.00;0.00;;;;;;;;4594805;31;28533;-75
2023/08/20 01:16:12;;;;;;;;;0.00;0.00;;;;;;;;4594815;31;28449;-75
2023/08/20 01:18:37;;;;;;;;;0.00;0.00;;;;;;;;4595138;31;28427;-74
2023/08/20 01:21:05;;;;;;;;;0.67;0.67;;;;;;;;4595291;30;28250;-75
2023/08/20 01:23:47;;;;;;;;;1.00;1.00;;;;;;;;4594459;30;29366;-77
2023/08/20 01:26:30;;;;;;;;;1.67;0.33;;;;;;;;4594117;30;28280;-75
2023/08/20 01:28:56;;;;;;;;;0.00;0.00;;;;;;;;4594691;30;28496;-75
2023/08/20 01:31:23;;;;;;;;;0.00;0.00;;;;;;;;4594892;31;28414;-75
2023/08/20 01:33:48;;;;;;;;;1.00;1.00;;;;;;;;4595025;31;28447;-75
2023/08/20 01:36:13;;;;;;;;;2.33;0.33;;;;;;;;4593465;31;28646;-75
2023/08/20 01:38:39;;;;;;;;;0.00;0.00;;;;;;;;4594612;31;28560;-75
2023/08/20 01:41:04;;;;;;;;;5.00;1.00;;;;;;;;4599690;30;28414;-75
2023/08/20 01:43:30;;;;;;;;;0.00;0.00;;;;;;;;4594270;31;29243;-75
2023/08/20 01:45:55;;;;;;;;;0.00;0.00;;;;;;;;4594289;31;28442;-75
2023/08/20 01:48:20;;;;;;;;;1.00;1.00;;;;;;;;4594591;31;28479;-75
2023/08/20 01:50:45;;;;;;;;;3.00;0.00;;;;;;;;4594172;31;28430;-75
2023/08/20 01:53:11;;;;;;;;;1.00;0.00;;;;;;;;4594204;30;28491;-75
2023/08/20 01:55:36;;;;;;;;;1.00;1.00;;;;;;;;4594256;31;28518;-75
2023/08/20 01:58:01;;;;;;;;;0.00;0.00;;;;;;;;4594275;31;28498;-74
2023/08/20 02:00:28;;;;;;;;;1.00;1.00;;;;;;;;4594532;31;28465;-75
2023/08/20 02:02:53;;;;;;;;;2.00;1.00;;;;;;;;4594246;31;28399;-74
2023/08/20 02:05:19;;;;;;;;;2.00;0.00;;;;;;;;4594294;30;28423;-74
2023/08/20 02:07:44;;;;;;;;;1.33;1.00;;;;;;;;4586117;31;28509;-74
2023/08/20 02:10:09;;;;;;;;;0.67;0.33;;;;;;;;4577983;31;28418;-74
2023/08/20 02:12:34;;;;;;;;;5.00;1.00;;;;;;;;4577445;31;29278;-75
2023/08/20 02:14:59;;;;;;;;;1.00;1.00;;;;;;;;4577915;31;28314;-75
2023/08/20 02:17:25;;;;;;;;;0.00;0.00;;;;;;;;4563080;31;28291;-74
2023/08/20 02:19:50;;;;;;;;;2.00;1.00;;;;;;;;4578035;31;28302;-74
2023/08/20 02:22:15;;;;;;;;;0.00;0.00;;;;;;;;4577471;31;29355;-75
2023/08/20 02:24:40;;;;;;;;;1.67;0.33;;;;;;;;4577626;31;28257;-75
2023/08/20 02:27:06;;;;;;;;;2.00;0.33;;;;;;;;4577932;31;28276;-75
2023/08/20 02:29:31;;;;;;;;;1.33;0.33;;;;;;;;4577844;31;28273;-75
2023/08/20 02:31:56;;;;;;;;;1.00;1.00;;;;;;;;4577775;31;29289;-75
2023/08/20 02:34:22;;;;;;;;;1.00;1.00;;;;;;;;4577738;31;28415;-75
2023/08/20 02:36:48;;;;;;;;;0.00;0.00;;;;;;;;4578161;31;28359;-75
2023/08/20 02:39:13;;;;;;;;;3.00;1.00;;;;;;;;4580475;31;28465;-74
2023/08/20 02:41:38;;;;;;;;;1.00;1.00;;;;;;;;4596302;30;28592;-75
2023/08/20 02:44:04;;;;;;;;;1.33;1.00;;;;;;;;4596830;31;28450;-74
2023/08/20 02:46:29;;;;;;;;;0.67;0.67;;;;;;;;4597256;30;28304;-76
2023/08/20 02:48:54;;;;;;;;;1.00;1.00;;;;;;;;4596756;31;28520;-75
2023/08/20 02:51:19;;;;;;;;;2.00;0.00;;;;;;;;4595377;31;28588;-74
2023/08/20 02:53:45;;;;;;;;;0.00;0.00;;;;;;;;4596812;31;28511;-75
2023/08/20 02:56:10;;;;;;;;;0.00;0.00;;;;;;;;4597185;31;28612;-75
2023/08/20 02:58:35;;;;;;;;;0.33;0.33;;;;;;;;4596882;31;28442;-75
2023/08/20 03:01:00;;;;;;;;;0.00;0.00;;;;;;;;4596922;31;28512;-75
2023/08/20 03:03:26;;;;;;;;;0.00;0.00;;;;;;;;4596672;31;28617;-75
2023/08/20 03:05:51;;;;;;;;;1.33;1.00;;;;;;;;4596572;31;28558;-75
2023/08/20 03:08:16;;;;;;;;;0.67;0.67;;;;;;;;4596730;31;28534;-75
2023/08/20 03:10:41;;;;;;;;;4.00;1.33;;;;;;;;4596456;31;28511;-75
2023/08/20 03:13:06;;;;;;;;;0.00;0.00;;;;;;;;4596663;31;28551;-75
2023/08/20 03:15:32;;;;;;;;;1.00;0.00;;;;;;;;4596189;31;29137;-75
2023/08/20 03:17:57;;;;;;;;;0.00;0.00;;;;;;;;4596576;31;28449;-75
2023/08/20 03:20:22;;;;;;;;;0.67;0.00;;;;;;;;4596442;30;28926;-74
2023/08/20 03:22:48;;;;;;;;;1.00;1.00;;;;;;;;4596314;30;28553;-75
2023/08/20 03:25:13;;;;;;;;;0.00;0.00;;;;;;;;4596896;30;28490;-76
2023/08/20 03:27:38;;;;;;;;;0.00;0.00;;;;;;;;4596590;31;28474;-75
2023/08/20 03:30:04;;;;;;;;;1.67;0.33;;;;;;;;4595000;31;30344;-76
2023/08/20 03:32:29;;;;;;;;;0.00;0.00;;;;;;;;4595268;31;28392;-75
2023/08/20 03:34:55;;;;;;;;;0.00;0.00;;;;;;;;4596014;30;28447;-75
2023/08/20 03:37:21;;;;;;;;;0.00;0.00;;;;;;;;4596233;30;28347;-75
2023/08/20 03:39:46;;;;;;;;;0.67;0.67;;;;;;;;4596240;30;28424;-75
2023/08/20 03:42:11;;;;;;;;;0.00;0.00;;;;;;;;4601537;30;28412;-75
2023/08/20 03:44:37;;;;;;;;;0.67;0.67;;;;;;;;4596271;31;28370;-75
2023/08/20 03:47:02;;;;;;;;;0.00;0.00;;;;;;;;4596408;31;28344;-75
2023/08/20 03:49:27;;;;;;;;;0.33;0.33;;;;;;;;4594974;31;28496;-75
2023/08/20 03:51:52;;;;;;;;;0.00;0.00;;;;;;;;4596074;30;28450;-76
2023/08/20 03:54:18;;;;;;;;;1.00;0.00;;;;;;;;4595291;31;28528;-75
2023/08/20 03:56:43;;;;;;;;;1.00;1.00;;;;;;;;4596039;30;28493;-75
2023/08/20 03:59:09;;;;;;;;;0.33;0.33;;;;;;;;4594711;31;30813;-75
2023/08/20 04:01:36;;;;;;;;;1.67;0.00;;;;;;;;4595950;31;28458;-75
2023/08/20 04:04:02;;;;;;;;;0.00;0.00;;;;;;;;4595443;30;28460;-74
2023/08/20 04:06:27;;;;;;;;;1.00;1.00;;;;;;;;4595852;30;28569;-75
2023/08/20 04:08:52;;;;;;;;;1.67;0.00;;;;;;;;4595672;31;28479;-73
2023/08/20 04:11:18;;;;;;;;;0.00;0.00;;;;;;;;4595973;31;28427;-76
2023/08/20 04:13:43;;;;;;;;;1.67;1.00;;;;;;;;4596075;31;28530;-76
2023/08/20 04:16:09;;;;;;;;;2.00;0.00;;;;;;;;4595670;30;28542;-77
2023/08/20 04:18:34;;;;;;;;;0.00;0.00;;;;;;;;4595612;30;28421;-77
2023/08/20 04:20:59;;;;;;;;;0.00;0.00;;;;;;;;4595745;31;28404;-77
2023/08/20 04:23:25;;;;;;;;;1.00;1.00;;;;;;;;4595845;31;28367;-77
2023/08/20 04:25:50;;;;;;;;;0.67;0.67;;;;;;;;4595730;31;28303;-77
2023/08/20 04:28:15;;;;;;;;;0.00;0.00;;;;;;;;4595462;31;29479;-76
2023/08/20 04:30:41;;;;;;;;;0.00;0.00;;;;;;;;4595770;31;28314;-76
2023/08/20 04:33:06;;;;;;;;;1.00;1.00;;;;;;;;4595362;31;28258;-76
2023/08/20 04:35:31;;;;;;;;;0.00;0.00;;;;;;;;4595638;31;28517;-76
2023/08/20 04:37:56;;;;;;;;;1.00;1.00;;;;;;;;4594392;31;29968;-75
2023/08/20 04:40:22;;;;;;;;;1.00;0.33;;;;;;;;4597227;30;28559;-76
2023/08/20 04:42:47;;;;;;;;;2.00;1.00;;;;;;;;4598990;30;28269;-77
2023/08/20 04:45:12;;;;;;;;;2.33;1.00;;;;;;;;4595857;31;28368;-76
2023/08/20 04:47:38;;;;;;;;;0.33;0.33;;;;;;;;4594957;30;28931;-76
2023/08/20 04:50:04;;;;;;;;;0.67;0.67;;;;;;;;4595039;31;28251;-76
2023/08/20 04:52:30;;;;;;;;;0.33;0.33;;;;;;;;4595587;31;28522;-76
2023/08/20 04:54:55;;;;;;;;;1.00;1.00;;;;;;;;4595185;31;28447;-76
2023/08/20 04:57:20;;;;;;;;;1.00;1.00;;;;;;;;4594038;31;29289;-76
2023/08/20 04:59:46;;;;;;;;;0.00;0.00;;;;;;;;4594801;31;28538;-76
2023/08/20 05:02:12;;;;;;;;;0.00;0.00;;;;;;;;4594922;30;28518;-76
2023/08/20 05:04:37;;;;;;;;;0.67;0.33;;;;;;;;4595080;31;28471;-75
2023/08/20 05:07:03;;;;;;;;;1.33;1.33;;;;;;;;4595017;31;29188;-74
2023/08/20 05:09:28;;;;;;;;;1.00;1.00;;;;;;;;4593920;31;28609;-76
2023/08/20 05:11:53;;;;;;;;;1.00;1.00;;;;;;;;4595163;31;28574;-76
2023/08/20 05:14:19;;;;;;;;;1.67;1.00;;;;;;;;4595008;31;27844;-75
2023/08/20 05:16:44;;;;;;;;;1.00;1.00;;;;;;;;4594698;31;28512;-75
2023/08/20 05:19:09;;;;;;;;;1.00;1.00;;;;;;;;4594907;31;28383;-76
2023/08/20 05:21:34;;;;;;;;;2.00;0.67;;;;;;;;4593931;31;28433;-76
2023/08/20 05:23:59;;;;;;;;;1.33;1.33;;;;;;;;4594958;31;28409;-76
2023/08/20 05:26:25;;;;;;;;;0.00;0.00;;;;;;;;4595106;31;29522;-77
2023/08/20 05:28:50;;;;;;;;;1.67;0.67;;;;;;;;4594806;31;28394;-76
2023/08/20 05:31:15;;;;;;;;;0.33;0.33;;;;;;;;4594761;31;28372;-76
2023/08/20 05:33:40;;;;;;;;;1.33;0.33;;;;;;;;4594907;31;28344;-76
2023/08/20 05:36:06;;;;;;;;;1.00;1.00;;;;;;;;4594690;31;28387;-75
2023/08/20 05:38:31;;;;;;;;;1.00;1.00;;;;;;;;4594800;31;28529;-76
2023/08/20 05:40:56;;;;;;;;;0.00;0.00;;;;;;;;4600008;30;28404;-75
2023/08/20 05:43:21;;;;;;;;;1.00;1.00;;;;;;;;4594533;30;28339;-76
2023/08/20 05:45:46;;;;;;;;;1.00;1.00;;;;;;;;4593356;31;29301;-76
2023/08/20 05:48:12;;;;;;;;;1.00;1.00;;;;;;;;4594706;31;28085;-75
2023/08/20 05:50:37;;;;;;;;;1.67;1.00;;;;;;;;4594564;30;28408;-75
2023/08/20 05:53:02;;;;;;;;;1.00;1.00;;;;;;;;4594624;31;28416;-75
2023/08/20 05:55:28;;;;;;;;;0.33;0.00;;;;;;;;4594184;30;28386;-75
2023/08/20 05:57:53;;;;;;;;;0.67;0.67;;;;;;;;4594583;31;28442;-75
2023/08/20 06:00:18;;;;;;;;;2.33;1.00;;;;;;;;4594161;31;28355;-75
2023/08/20 06:02:43;;;;;;;;;1.00;1.00;;;;;;;;4594820;31;28347;-75
2023/08/20 06:05:09;;;;;;;;;2.00;1.00;;;;;;;;4594198;31;28479;-75
2023/08/20 06:07:34;;;;;;;;;0.00;0.00;;;;;;;;4592981;31;30067;-75
2023/08/20 06:09:59;;;;;;;;;2.00;2.00;;;;;;;;4594487;31;28423;-75
2023/08/20 06:12:25;;;;;;;;;1.00;1.00;;;;;;;;4593745;31;28474;-75
2023/08/20 06:14:50;;;;;;;;;1.33;1.33;;;;;;;;4594446;31;28585;-75
2023/08/20 06:17:15;;;;;;;;;0.67;0.67;;;;;;;;4594546;31;28629;-75
2023/08/20 06:19:41;;;;;;;;;1.67;1.00;;;;;;;;4594579;30;28399;-75
2023/08/20 06:22:06;;;;;;;;;4.00;0.33;;;;;;;;4588891;31;27896;-75
2023/08/20 06:24:31;;;;;;;;;1.00;1.00;;;;;;;;4575692;31;30299;-75
2023/08/20 06:26:56;;;;;;;;;0.00;0.00;;;;;;;;4577907;31;28526;-75
2023/08/20 06:29:21;;;;;;;;;0.00;0.00;;;;;;;;4577467;31;28453;-75
2023/08/20 06:31:47;;;;;;;;;0.33;0.33;;;;;;;;4576534;31;28451;-75
2023/08/20 06:34:12;;;;;;;;;2.00;1.00;;;;;;;;4577070;31;28479;-75
2023/08/20 06:36:37;;;;;;;;;2.67;1.00;;;;;;;;4590737;31;28583;-75
2023/08/20 06:39:03;;;;;;;;;2.33;2.33;;;;;;;;4594239;31;28466;-75
2023/08/20 06:41:28;;;;;;;;;1.67;0.00;;;;;;;;4598892;30;28519;-75
2023/08/20 06:43:53;;;;;;;;;1.33;1.33;;;;;;;;4593673;31;28445;-76
2023/08/20 06:46:19;;;;;;;;;2.33;2.00;;;;;;;;4592515;31;29632;-76
2023/08/20 06:48:44;;;;;;;;;2.00;2.00;;;;;;;;4594016;31;28468;-75
2023/08/20 06:51:18;;;;;;;;;1.00;1.00;;;;;;;;4594101;31;28381;-76
2023/08/20 06:53:44;;;;;;;;;3.00;2.00;;;;;;;;4593621;31;28703;-75
2023/08/20 06:56:09;;;;;;;;;1.00;1.00;;;;;;;;4593794;31;28386;-75
2023/08/20 06:58:37;;;;;;;;;3.00;2.00;;;;;;;;4593912;31;28471;-75
2023/08/20 07:01:09;;;;;;;;;1.00;1.00;;;;;;;;4592792;31;28399;-75
2023/08/20 07:03:34;;;;;;;;;1.00;1.00;;;;;;;;4593649;31;30748;-75
2023/08/20 07:05:59;;;;;;;;;2.00;2.00;;;;;;;;4593518;31;28135;-75
2023/08/20 07:08:25;;;;;;;;;1.00;1.00;;;;;;;;4592625;31;28611;-75
2023/08/20 07:10:50;;;;;;;;;1.67;1.67;;;;;;;;4588446;31;28480;-75
2023/08/20 07:13:15;;;;;;;;;3.00;1.33;;;;;;;;4593546;31;29392;-75
2023/08/20 07:15:40;;;;;;;;;1.33;1.33;;;;;;;;4593761;31;28397;-76
2023/08/20 07:18:05;;;;;;;;;2.33;1.33;;;;;;;;4592618;31;28454;-75
2023/08/20 07:20:31;;;;;;;;;3.00;3.00;;;;;;;;4593677;31;28352;-75
2023/08/20 07:22:56;;;;;;;;;3.00;2.00;;;;;;;;4587098;31;28260;-75
2023/08/20 07:25:21;;;;;;;;;1.67;1.00;;;;;;;;4588545;31;27950;-75
2023/08/20 07:27:46;;;;;;;;;1.33;1.33;;;;;;;;4579359;31;28327;-76
2023/08/20 07:30:12;;;;;;;;;1.00;1.00;;;;;;;;4578415;31;28483;-76
2023/08/20 07:32:37;;;;;;;;;1.00;1.00;;;;;;;;4586900;31;28424;-76
2023/08/20 07:35:02;;;;;;;;;4.00;3.00;;;;;;;;4596147;31;28471;-75
2023/08/20 07:37:28;;;;;;;;;3.33;1.67;;;;;;;;4596232;31;28276;-75
2023/08/20 07:39:53;;;;;;;;;2.67;2.67;;;;;;;;4596486;31;28418;-76
2023/08/20 07:42:18;;;;;;;;;2.33;2.33;;;;;;;;4601164;30;28308;-75
2023/08/20 07:44:43;;;;;;;;;3.33;1.33;;;;;;;;4579876;30;28356;-75
2023/08/20 07:47:09;;;;;;;;;2.00;2.00;;;;;;;;4579711;31;28590;-75
2023/08/20 07:49:34;;;;;;;;;3.33;2.00;;;;;;;;4578284;31;28592;-75
2023/08/20 07:51:59;;;;;;;;;3.00;3.00;;;;;;;;4579430;31;29078;-74
2023/08/20 07:54:24;;;;;;;;;3.00;2.00;;;;;;;;4577975;31;28986;-74
2023/08/20 07:56:49;;;;;;;;;2.33;2.33;;;;;;;;4579703;31;27801;-75
2023/08/20 07:59:14;;;;;;;;;4.00;2.67;;;;;;;;4581642;31;27951;-75
2023/08/20 08:01:40;;;;;;;;;2.00;2.00;;;;;;;;4585826;31;28500;-74
2023/08/20 08:04:05;;;;;;;;;3.00;2.00;;;;;;;;4579301;31;28564;-75
2023/08/20 08:06:30;;;;;;;;;2.00;2.00;;;;;;;;4579846;31;28459;-74
2023/08/20 08:08:55;;;;;;;;;2.00;2.00;;;;;;;;4588459;31;28707;-75
2023/08/20 08:11:20;;;;;;;;;2.00;2.00;;;;;;;;4586034;31;28562;-74
2023/08/20 08:13:46;;;;;;;;;2.00;2.00;;;;;;;;4591825;31;29131;-75
2023/08/20 08:16:11;;;;;;;;;4.00;3.00;;;;;;;;4579273;31;28463;-74
2023/08/20 08:18:36;;;;;;;;;2.00;2.00;;;;;;;;4585507;31;28403;-74
2023/08/20 08:21:01;;;;;;;;;1.00;1.00;;;;;;;;4584025;31;28460;-74
2023/08/20 08:23:27;;;;;;;;;3.00;3.00;;;;;;;;4586278;31;28331;-74
2023/08/20 08:25:52;;;;;;;;;2.00;2.00;;;;;;;;4591168;30;28546;-73
2023/08/20 08:28:17;;;;;;;;;2.00;2.00;;;;;;;;4594049;31;28539;-75
2023/08/20 08:30:42;;;;;;;;;4.33;4.33;;;;;;;;4585267;31;29447;-74
2023/08/20 08:33:07;;;;;;;;;3.00;2.33;;;;;;;;4594864;31;28479;-75
2023/08/20 08:35:33;;;;;;;;;2.67;2.00;;;;;;;;4592517;31;28516;-74
2023/08/20 08:37:58;;;;;;;;;4.00;3.67;;;;;;;;4595267;31;28503;-74
2023/08/20 08:40:27;;;;;;;;;3.00;2.00;;;;;;;;4587783;30;28710;-74
2023/08/20 08:42:53;;;;;;;;;4.00;2.00;;;;;;;;4592514;31;28488;-73
2023/08/20 08:45:19;;;;;;;;;4.67;2.67;;;;;;;;4595666;30;28440;-75
2023/08/20 08:47:45;;;;;;;;;1.00;1.00;;;;;;;;4595387;31;28451;-74
2023/08/20 08:50:10;;;;;;;;;3.33;2.33;;;;;;;;4595252;30;29284;-74
2023/08/20 08:52:36;;;;;;;;;3.00;3.00;;;;;;;;4589290;31;28412;-74
2023/08/20 08:55:03;;;;;;;;;3.33;2.00;;;;;;;;4578925;31;28418;-74
2023/08/20 08:57:28;;;;;;;;;4.67;2.00;;;;;;;;4578798;31;28575;-74
2023/08/20 08:59:53;;;;;;;;;3.00;3.00;;;;;;;;4578521;31;28457;-74
2023/08/20 09:02:19;;;;;;;;;3.00;3.00;;;;;;;;4578859;31;28521;-74
2023/08/20 09:04:44;;;;;;;;;2.33;2.33;;;;;;;;4578465;31;28400;-74
2023/08/20 09:07:13;;;;;;;;;3.00;3.00;;;;;;;;4578569;31;28473;-74
2023/08/20 09:09:41;;;;;;;;;2.00;2.00;;;;;;;;4580486;31;29319;-74
2023/08/20 09:12:17;;;;;;;;;2.00;2.00;;;;;;;;4578485;31;28547;-75
2023/08/20 09:14:46;;;;;;;;;4.00;2.00;;;;;;;;4578640;31;28454;-74
2023/08/20 09:17:12;;;;;;;;;3.00;3.00;;;;;;;;4578530;31;28379;-74
2023/08/20 09:19:37;;;;;;;;;3.00;3.00;;;;;;;;4578416;31;28304;-74
2023/08/20 09:22:02;;;;;;;;;2.00;2.00;;;;;;;;4578036;31;28288;-73
2023/08/20 09:24:39;;;;;;;;;2.00;1.00;;;;;;;;4578641;31;28455;-73
2023/08/20 09:27:08;;;;;;;;;1.33;1.33;;;;;;;;4578501;31;28574;-75
2023/08/20 09:29:34;;;;;;;;;4.00;4.00;;;;;;;;4578149;31;29286;-74
2023/08/20 09:32:02;;;;;;;;;4.33;4.00;;;;;;;;4576794;31;29044;-74
2023/08/20 09:34:38;;;;;;;;;3.50;3.00;;;;;;;;4577099;31;28305;-74
2023/08/20 09:37:03;;;;;;;;;2.33;1.00;;;;;;;;4577909;31;28479;-74
2023/08/20 09:39:29;;;;;;;;;1.33;1.33;;;;;;;;4577781;31;29507;-74
2023/08/20 09:41:55;;;;;;;;;3.00;3.00;;;;;;;;4595323;30;28529;-74
2023/08/20 09:44:21;;;;;;;;;2.75;2.75;;;;;;;;4594842;31;28358;-74
2023/08/20 09:46:46;;;;;;;;;2.50;2.50;;;;;;;;4593882;31;28424;-75
2023/08/20 09:49:15;;;;;;;;;3.50;3.50;;;;;;;;4578295;30;29083;-74
2023/08/20 09:51:42;;;;;;;;;3.25;3.25;;;;;;;;4577997;31;28380;-75
2023/08/20 09:54:14;;;;;;;;;4.25;3.50;;;;;;;;4577918;31;28420;-74
2023/08/20 09:56:39;;;;;;;;;2.25;2.25;;;;;;;;4578210;31;28376;-73
2023/08/20 09:59:04;;;;;;;;;2.00;2.00;;;;;;;;4578048;31;28524;-73
2023/08/20 10:01:30;;;;;;;;;3.25;3.00;;;;;;;;4586086;31;28572;-73
2023/08/20 10:03:56;;;;;;;;;2.00;2.00;;;;;;;;4577851;31;28521;-74
2023/08/20 10:06:21;;;;;;;;;6.75;6.75;;;;;;;;4594156;31;28364;-73
2023/08/20 10:08:46;;;;;;;;;5.75;4.75;;;;;;;;4593941;31;28377;-74
2023/08/20 10:11:12;;;;;;;;;3.00;2.00;;;;;;;;4594133;31;28400;-74
2023/08/20 10:13:37;;;;;;;;;3.25;3.25;;;;;;;;4594263;31;28461;-74
2023/08/20 10:16:03;;;;;;;;;3.00;3.00;;;;;;;;4592938;31;28595;-74
2023/08/20 10:18:28;;;;;;;;;3.50;2.00;;;;;;;;4594184;31;29355;-74
2023/08/20 10:20:56;;;;;;;;;2.25;2.25;;;;;;;;4594324;31;28386;-73
2023/08/20 10:23:23;;;;;;;;;1.75;1.75;;;;;;;;4594229;31;28531;-74
2023/08/20 10:25:48;;;;;;;;;2.75;1.25;;;;;;;;4594373;31;28371;-74
2023/08/20 10:28:18;;;;;;;;;1.00;1.00;;;;;;;;4593924;31;28582;-74
2023/08/20 10:31:02;;;;;;;;;1.50;1.50;;;;;;;;4594079;31;28300;-74
2023/08/20 10:33:27;;;;;;;;;3.25;3.25;;;;;;;;4594256;31;28288;-75
2023/08/20 10:35:53;;;;;;;;;1.50;0.50;;;;;;;;4592697;31;28404;-74
2023/08/20 10:38:18;;;;;;;;;2.50;1.50;;;;;;;;4593971;31;28273;-75
2023/08/20 10:40:51;;;;;;;;;3.00;3.00;;;;;;;;4591525;30;28420;-74
2023/08/20 10:43:26;;;;;;;;;1.75;1.75;;;;;;;;4610976;30;28530;-75
2023/08/20 10:46:09;;;;;;;;;3.00;2.50;;;;;;;;4610711;30;27973;-74
2023/08/20 10:48:35;;;;;;;;;5.50;5.00;;;;;;;;4609602;30;28461;-75
2023/08/20 10:51:07;;;;;;;;;5.75;5.25;;;;;;;;4608258;30;28456;-74
2023/08/20 10:53:32;;;;;;;;;4.00;4.00;;;;;;;;4609648;30;28492;-74
2023/08/20 10:56:07;;;;;;;;;2.00;2.00;;;;;;;;4603325;30;28583;-74
2023/08/20 10:58:32;;;;;;;;;2.25;2.25;;;;;;;;4595653;31;29324;-74
2023/08/20 11:01:17;;;;;;;;;2.00;2.00;;;;;;;;4596380;31;28504;-74
2023/08/20 11:03:44;;;;;;;;;3.00;2.75;;;;;;;;4596544;30;28429;-75
2023/08/20 11:06:10;;;;;;;;;2.00;2.00;;;;;;;;4595379;31;28636;-72
2023/08/20 11:08:35;;;;;;;;;3.00;2.75;;;;;;;;4594617;31;28489;-72
2023/08/20 11:11:01;;;;;;;;;1.00;1.00;;;;;;;;4595446;30;28492;-73
2023/08/20 11:13:28;;;;;;;;;2.00;2.00;;;;;;;;4595500;30;28594;-72
2023/08/20 11:15:53;;;;;;;;;3.00;2.00;;;;;;;;4595491;31;28748;-72
2023/08/20 11:18:18;;;;;;;;;2.75;2.75;;;;;;;;4595564;31;29302;-71
2023/08/20 11:20:44;;;;;;;;;1.75;1.75;;;;;;;;4595224;31;28372;-72
2023/08/20 11:23:11;;;;;;;;;2.25;2.25;;;;;;;;4595802;30;28779;-73
2023/08/20 11:25:40;;;;;;;;;0.00;0.00;;;;;;;;4595347;30;28587;-73
2023/08/20 11:28:06;;;;;;;;;2.50;2.50;;;;;;;;4595093;31;28674;-72
2023/08/20 11:30:32;;;;;;;;;1.25;1.25;;;;;;;;4595229;31;28782;-71
2023/08/20 11:32:57;;;;;;;;;2.25;2.25;;;;;;;;4594676;30;28429;-72
2023/08/20 11:35:22;;;;;;;;;2.00;2.00;;;;;;;;4590547;31;28539;-71
2023/08/20 11:37:48;;;;;;;;;4.00;4.00;;;;;;;;4593895;31;29093;-71
2023/08/20 11:40:14;;;;;;;;;3.25;3.25;;;;;;;;4595904;30;28499;-71
2023/08/20 11:42:39;;;;;;;;;3.00;2.00;;;;;;;;4597759;30;28408;-72
2023/08/20 11:45:05;;;;;;;;;2.00;2.00;;;;;;;;4595096;31;28514;-74
2023/08/20 11:47:38;;;;;;;;;1.00;1.00;;;;;;;;4594698;30;28485;-72
2023/08/20 11:50:04;;;;;;;;;1.75;1.75;;;;;;;;4594702;30;28439;-71
2023/08/20 11:52:30;;;;;;;;;2.00;2.00;;;;;;;;4595081;30;28571;-71
2023/08/20 11:54:56;;;;;;;;;1.00;1.00;;;;;;;;4594765;30;28567;-71
2023/08/20 11:57:21;;;;;;;;;1.00;1.00;;;;;;;;4595030;31;28566;-72
2023/08/20 11:59:46;;;;;;;;;2.00;2.00;;;;;;;;4594745;31;28541;-71
2023/08/20 12:02:12;;;;;;;;;0.50;0.00;;;;;;;;4593796;31;28771;-72
2023/08/20 12:04:37;;;;;;;;;2.75;2.00;;;;;;;;4594878;30;28777;-72
2023/08/20 12:07:03;;;;;;;;;1.75;1.75;;;;;;;;4594979;31;28478;-71
2023/08/20 12:09:28;;;;;;;;;3.00;3.00;;;;;;;;4594155;31;28566;-72
2023/08/20 12:11:55;;;;;;;;;2.75;2.00;;;;;;;;4594219;30;28739;-73
2023/08/20 12:14:21;;;;;;;;;1.33;1.33;;;;;;;;4593862;31;28602;-71
2023/08/20 12:16:46;;;;;;;;;2.25;0.50;;;;;;;;4593309;31;28468;-72
2023/08/20 12:19:13;;;;;;;;;3.00;2.00;;;;;;;;4594652;30;28441;-72
2023/08/20 12:21:38;;;;;;;;;4.75;2.25;;;;;;;;4594477;30;28447;-72
2023/08/20 12:24:04;;;;;;;;;3.00;1.00;;;;;;;;4594407;31;28566;-73
2023/08/20 12:26:29;;;;;;;;;1.50;1.25;;;;;;;;4594334;30;29351;-72
2023/08/20 12:28:54;;;;;;;;;3.25;3.25;;;;;;;;4594354;31;28596;-74
2023/08/20 12:31:20;;;;;;;;;1.00;1.00;;;;;;;;4594436;31;28469;-72
2023/08/20 12:33:45;;;;;;;;;2.75;2.50;;;;;;;;4594548;30;28778;-72
2023/08/20 12:36:10;;;;;;;;;1.00;1.00;;;;;;;;4594288;30;29413;-72
2023/08/20 12:38:35;;;;;;;;;1.00;1.00;;;;;;;;4594020;31;28533;-72
2023/08/20 12:41:03;;;;;;;;;1.00;1.00;;;;;;;;4588557;31;28411;-71
2023/08/20 12:43:28;;;;;;;;;2.00;1.00;;;;;;;;4577814;31;28506;-73
2023/08/20 12:45:53;;;;;;;;;1.00;1.00;;;;;;;;4577706;31;28535;-72
2023/08/20 12:48:19;;;;;;;;;2.00;2.00;;;;;;;;4577673;31;28451;-72
2023/08/20 12:50:44;;;;;;;;;0.50;0.50;;;;;;;;4577744;31;28578;-73
2023/08/20 12:53:09;;;;;;;;;1.25;1.25;;;;;;;;4577506;31;28668;-73
2023/08/20 12:55:34;;;;;;;;;1.50;1.50;;;;;;;;4577950;31;28457;-72
2023/08/20 12:57:59;;;;;;;;;2.00;2.00;;;;;;;;4577627;31;28438;-71
2023/08/20 13:00:25;;;;;;;;;2.00;2.00;;;;;;;;4577429;31;28496;-73
2023/08/20 13:02:51;;;;;;;;;2.00;1.00;;;;;;;;4577746;31;28592;-72
2023/08/20 13:05:17;;;;;;;;;2.00;2.00;;;;;;;;4577110;31;30392;-73
2023/08/20 13:07:42;;;;;;;;;0.50;0.50;;;;;;;;4577704;31;28694;-73
2023/08/20 13:10:10;;;;;;;;;2.00;1.00;;;;;;;;4577467;31;28416;-73
2023/08/20 13:12:36;;;;;;;;;2.67;1.00;;;;;;;;4577657;31;28551;-72
2023/08/20 13:15:03;;;;;;;;;1.25;1.25;;;;;;;;4577185;31;29964;-73
2023/08/20 13:17:29;;;;;;;;;0.00;0.00;;;;;;;;4577141;31;28526;-74
2023/08/20 13:19:54;;;;;;;;;1.25;1.25;;;;;;;;4577074;31;28472;-72
2023/08/20 13:22:19;;;;;;;;;1.00;1.00;;;;;;;;4593567;31;28593;-72
2023/08/20 13:24:44;;;;;;;;;1.00;1.00;;;;;;;;4593892;31;28678;-72
2023/08/20 13:27:09;;;;;;;;;1.00;1.00;;;;;;;;4593898;31;28671;-73
2023/08/20 13:29:35;;;;;;;;;1.00;1.00;;;;;;;;4593807;31;28487;-72
2023/08/20 13:32:00;;;;;;;;;0.75;0.75;;;;;;;;4593582;31;28447;-72
2023/08/20 13:34:25;;;;;;;;;1.25;1.25;;;;;;;;4593807;30;28930;-72
2023/08/20 13:36:50;;;;;;;;;1.00;1.00;;;;;;;;4592666;31;28601;-72
2023/08/20 13:39:18;;;;;;;;;2.00;2.00;;;;;;;;4594118;31;28770;-72
2023/08/20 13:41:43;;;;;;;;;1.50;1.50;;;;;;;;4595475;30;28377;-73
2023/08/20 13:44:08;;;;;;;;;1.00;1.00;;;;;;;;4593036;31;28526;-73
2023/08/20 13:46:34;;;;;;;;;1.00;1.00;;;;;;;;4593726;30;28458;-72
2023/08/20 13:48:59;;;;;;;;;0.00;0.00;;;;;;;;4593363;31;28692;-72
2023/08/20 13:51:25;;;;;;;;;2.00;1.00;;;;;;;;4593231;31;28522;-72
2023/08/20 13:53:50;;;;;;;;;1.00;1.00;;;;;;;;4594551;30;30102;-73
2023/08/20 13:56:15;;;;;;;;;1.00;1.00;;;;;;;;4623877;25;28766;-78
2023/08/20 13:58:41;;;;;;;;;1.25;1.25;;;;;;;;4628188;30;28413;-79
2023/08/20 14:01:06;;;;;;;;;1.25;0.00;;;;;;;;4627156;30;28570;-81
2023/08/20 14:03:32;;;;;;;;;0.00;0.00;;;;;;;;4628566;30;29681;-82
2023/08/20 14:05:57;;;;;;;;;2.50;2.25;;;;;;;;4628548;30;28404;-80
2023/08/20 14:08:22;;;;;;;;;0.50;0.50;;;;;;;;4628162;30;28477;-79
2023/08/20 14:10:47;;;;;;;;;1.00;1.00;;;;;;;;4628319;30;28660;-81
2023/08/20 14:13:12;;;;;;;;;0.00;0.00;;;;;;;;4628313;30;29099;-81
2023/08/20 14:15:37;;;;;;;;;0.00;0.00;;;;;;;;4628528;30;28288;-81
2023/08/20 14:18:03;;;;;;;;;0.00;0.00;;;;;;;;4628188;30;28459;-80
2023/08/20 14:20:28;;;;;;;;;1.00;1.00;;;;;;;;4628135;30;28569;-81
2023/08/20 14:22:54;;;;;;;;;0.00;0.00;;;;;;;;4627484;30;29428;-82
2023/08/20 14:25:19;;;;;;;;;2.25;1.00;;;;;;;;4628084;30;28482;-82
2023/08/20 14:27:45;;;;;;;;;0.75;0.75;;;;;;;;4628159;30;28458;-81
2023/08/20 14:30:11;;;;;;;;;0.00;0.00;;;;;;;;4627977;30;28332;-81
2023/08/20 14:32:36;;;;;;;;;1.00;1.00;;;;;;;;4629572;30;28457;-80
2023/08/20 14:35:01;;;;;;;;;0.50;0.00;;;;;;;;4631378;30;28506;-82